Itaberai, Brazil
Current Conditions -  °F | °C
As of 3:00 PM on Monday 24 Nov 2014 (Local Time) from SBGO Reporting Station
Few Clouds Few Clouds  
Wind Chill: 82°   Ceiling: Unl
Heat Index: 84°   Visibility: 6mi
Dew Point: 64°   Wind: 12mph
Humidity: 54%   Direction: 310°NW
Pressure: 29.97"   Gusts: NA
Location:  16.02°S, 49.81°W
Report Text: SBGO 241700Z 31010KT 9999 FEW030 FEW035TCU 28/18 Q1015
Loading
Personal Weather Stations






























Interactive Weather Map New forecast layout! Learn more

10-Day Weather Forecast

Advertisements
Track Severe Weather on mobile